sensor_id;sensor_type;location;lat;lon;timestamp;temperature;humidity
25918;DHT22;13899;51.174;4.456;2024-01-10T00:01:18;-2.00;99.90
25918;DHT22;13899;51.174;4.456;2024-01-10T00:03:44;-2.20;99.90
25918;DHT22;13899;51.174;4.456;2024-01-10T00:06:10;-2.00;99.90
25918;DHT22;13899;51.174;4.456;2024-01-10T00:08:36;-1.80;99.90
25918;DHT22;13899;51.174;4.456;2024-01-10T00:11:02;-2.00;99.90
25918;DHT22;13899;51.174;4.456;2024-01-10T00:13:30;-2.10;99.90
25918;DHT22;13899;51.174;4.456;2024-01-10T00:15:56;-1.90;99.90
25918;DHT22;13899;51.174;4.456;2024-01-10T00:18:24;-1.80;99.90
25918;DHT22;13899;51.174;4.456;2024-01-10T00:20:53;-2.20;99.90
25918;DHT22;13899;51.174;4.456;2024-01-10T00:23:20;-2.20;99.90
25918;DHT22;13899;51.174;4.456;2024-01-10T00:25:46;-2.20;99.90
25918;DHT22;13899;51.174;4.456;2024-01-10T00:28:12;-2.20;99.90
25918;DHT22;13899;51.174;4.456;2024-01-10T00:30:38;-1.80;99.90
25918;DHT22;13899;51.174;4.456;2024-01-10T00:33:04;-1.60;99.90
25918;DHT22;13899;51.174;4.456;2024-01-10T00:35:30;-1.80;99.90
25918;DHT22;13899;51.174;4.456;2024-01-10T00:37:56;-2.10;99.90
25918;DHT22;13899;51.174;4.456;2024-01-10T00:40:22;-2.20;99.90
25918;DHT22;13899;51.174;4.456;2024-01-10T00:42:48;-2.20;99.90
25918;DHT22;13899;51.174;4.456;2024-01-10T00:45:14;-2.50;99.90
25918;DHT22;13899;51.174;4.456;2024-01-10T00:47:39;-2.50;99.90
25918;DHT22;13899;51.174;4.456;2024-01-10T00:50:05;-2.50;99.90
25918;DHT22;13899;51.174;4.456;2024-01-10T00:52:31;-2.50;99.90
25918;DHT22;13899;51.174;4.456;2024-01-10T00:54:57;-2.50;99.90
25918;DHT22;13899;51.174;4.456;2024-01-10T00:57:22;-2.10;99.90
25918;DHT22;13899;51.174;4.456;2024-01-10T00:59:48;-2.00;99.90
25918;DHT22;13899;51.174;4.456;2024-01-10T01:02:14;-2.20;99.90
25918;DHT22;13899;51.174;4.456;2024-01-10T01:04:39;-2.30;99.90
25918;DHT22;13899;51.174;4.456;2024-01-10T01:07:05;-2.50;99.90
25918;DHT22;13899;51.174;4.456;2024-01-10T01:09:30;-2.40;99.90
25918;DHT22;13899;51.174;4.456;2024-01-10T01:11:56;-2.30;99.90
25918;DHT22;13899;51.174;4.456;2024-01-10T01:14:22;-2.20;99.90
25918;DHT22;13899;51.174;4.456;2024-01-10T01:16:47;-1.90;99.90
25918;DHT22;13899;51.174;4.456;2024-01-10T01:19:13;-1.80;99.90
25918;DHT22;13899;51.174;4.456;2024-01-10T01:21:38;-1.70;99.90
25918;DHT22;13899;51.174;4.456;2024-01-10T01:24:04;-1.80;99.90
25918;DHT22;13899;51.174;4.456;2024-01-10T01:26:30;-1.80;99.90
25918;DHT22;13899;51.174;4.456;2024-01-10T01:28:55;-1.70;99.90
25918;DHT22;13899;51.174;4.456;2024-01-10T01:31:21;-1.50;99.90
25918;DHT22;13899;51.174;4.456;2024-01-10T01:33:47;-1.50;99.90
25918;DHT22;13899;51.174;4.456;2024-01-10T01:36:12;-1.60;99.90
25918;DHT22;13899;51.174;4.456;2024-01-10T01:38:38;-1.60;99.90
25918;DHT22;13899;51.174;4.456;2024-01-10T01:41:04;-1.70;99.90
25918;DHT22;13899;51.174;4.456;2024-01-10T01:43:31;-1.70;99.90
25918;DHT22;13899;51.174;4.456;2024-01-10T01:45:57;-1.90;99.90
25918;DHT22;13899;51.174;4.456;2024-01-10T01:48:24;-1.80;99.90
25918;DHT22;13899;51.174;4.456;2024-01-10T01:50:58;-2.00;99.90
25918;DHT22;13899;51.174;4.456;2024-01-10T01:53:25;-2.20;99.90
25918;DHT22;13899;51.174;4.456;2024-01-10T01:55:52;-2.20;99.90
25918;DHT22;13899;51.174;4.456;2024-01-10T01:58:19;-2.10;99.90
25918;DHT22;13899;51.174;4.456;2024-01-10T02:00:46;-2.10;99.90
25918;DHT22;13899;51.174;4.456;2024-01-10T02:03:11;-2.00;99.90
25918;DHT22;13899;51.174;4.456;2024-01-10T02:05:37;-2.40;99.90
25918;DHT22;13899;51.174;4.456;2024-01-10T02:08:03;-2.50;99.90
25918;DHT22;13899;51.174;4.456;2024-01-10T02:10:29;-2.60;99.90
25918;DHT22;13899;51.174;4.456;2024-01-10T02:12:54;-2.40;99.90
25918;DHT22;13899;51.174;4.456;2024-01-10T02:15:20;-2.20;99.90
25918;DHT22;13899;51.174;4.456;2024-01-10T02:17:46;-1.80;99.90
25918;DHT22;13899;51.174;4.456;2024-01-10T02:20:16;-1.70;99.90
25918;DHT22;13899;51.174;4.456;2024-01-10T02:22:46;-1.90;99.90
25918;DHT22;13899;51.174;4.456;2024-01-10T02:25:13;-1.70;99.90
25918;DHT22;13899;51.174;4.456;2024-01-10T02:27:39;-1.90;99.90
25918;DHT22;13899;51.174;4.456;2024-01-10T02:30:07;-1.90;99.90
25918;DHT22;13899;51.174;4.456;2024-01-10T02:32:33;-1.90;99.90
25918;DHT22;13899;51.174;4.456;2024-01-10T02:34:58;-1.90;99.90
25918;DHT22;13899;51.174;4.456;2024-01-10T02:37:24;-2.30;99.90
25918;DHT22;13899;51.174;4.456;2024-01-10T02:39:50;-2.30;99.90
25918;DHT22;13899;51.174;4.456;2024-01-10T02:42:16;-2.10;99.90
25918;DHT22;13899;51.174;4.456;2024-01-10T02:44:42;-1.90;99.90
25918;DHT22;13899;51.174;4.456;2024-01-10T02:47:08;-1.70;99.90
25918;DHT22;13899;51.174;4.456;2024-01-10T02:49:34;-2.00;99.90
25918;DHT22;13899;51.174;4.456;2024-01-10T02:52:00;-2.20;99.90
25918;DHT22;13899;51.174;4.456;2024-01-10T02:54:26;-2.40;99.90
25918;DHT22;13899;51.174;4.456;2024-01-10T02:56:52;-2.30;99.90
25918;DHT22;13899;51.174;4.456;2024-01-10T02:59:17;-2.00;99.90
25918;DHT22;13899;51.174;4.456;2024-01-10T03:01:43;-1.80;99.90
25918;DHT22;13899;51.174;4.456;2024-01-10T03:04:09;-1.50;99.90
25918;DHT22;13899;51.174;4.456;2024-01-10T03:06:35;-1.50;99.90
25918;DHT22;13899;51.174;4.456;2024-01-10T03:09:00;-1.20;99.90
25918;DHT22;13899;51.174;4.456;2024-01-10T03:11:26;-1.80;99.90
25918;DHT22;13899;51.174;4.456;2024-01-10T03:14:01;-2.10;99.90
25918;DHT22;13899;51.174;4.456;2024-01-10T03:16:27;-2.10;99.90
25918;DHT22;13899;51.174;4.456;2024-01-10T03:18:52;-2.20;99.90
25918;DHT22;13899;51.174;4.456;2024-01-10T03:21:18;-2.10;99.90
25918;DHT22;13899;51.174;4.456;2024-01-10T03:23:50;-1.90;99.90
25918;DHT22;13899;51.174;4.456;2024-01-10T03:26:16;-2.20;99.90
25918;DHT22;13899;51.174;4.456;2024-01-10T03:28:42;-2.00;99.90
25918;DHT22;13899;51.174;4.456;2024-01-10T03:31:08;-1.90;99.90
25918;DHT22;13899;51.174;4.456;2024-01-10T03:33:36;-1.80;99.90
25918;DHT22;13899;51.174;4.456;2024-01-10T03:36:02;-1.70;99.90
25918;DHT22;13899;51.174;4.456;2024-01-10T03:38:29;-1.60;99.90
25918;DHT22;13899;51.174;4.456;2024-01-10T03:40:54;-1.70;99.90
25918;DHT22;13899;51.174;4.456;2024-01-10T03:43:20;-1.60;99.90
25918;DHT22;13899;51.174;4.456;2024-01-10T03:45:46;-1.70;99.90
25918;DHT22;13899;51.174;4.456;2024-01-10T03:48:11;-1.80;99.90
25918;DHT22;13899;51.174;4.456;2024-01-10T03:50:37;-1.70;99.90
25918;DHT22;13899;51.174;4.456;2024-01-10T03:53:03;-1.80;99.90
25918;DHT22;13899;51.174;4.456;2024-01-10T03:55:28;-1.90;99.90
25918;DHT22;13899;51.174;4.456;2024-01-10T03:57:55;-1.80;99.90
25918;DHT22;13899;51.174;4.456;2024-01-10T04:00:21;-1.90;99.90
25918;DHT22;13899;51.174;4.456;2024-01-10T04:02:47;-1.90;99.90
25918;DHT22;13899;51.174;4.456;2024-01-10T04:05:12;-1.70;99.90
25918;DHT22;13899;51.174;4.456;2024-01-10T04:07:42;-2.10;99.90
25918;DHT22;13899;51.174;4.456;2024-01-10T04:10:12;-2.30;99.90
25918;DHT22;13899;51.174;4.456;2024-01-10T04:12:45;-2.60;99.90
25918;DHT22;13899;51.174;4.456;2024-01-10T04:15:12;-2.30;99.90
25918;DHT22;13899;51.174;4.456;2024-01-10T04:17:38;-2.30;99.90
25918;DHT22;13899;51.174;4.456;2024-01-10T04:20:04;-2.60;99.90
25918;DHT22;13899;51.174;4.456;2024-01-10T04:22:30;-2.80;99.90
25918;DHT22;13899;51.174;4.456;2024-01-10T04:24:57;-2.60;99.90
25918;DHT22;13899;51.174;4.456;2024-01-10T04:27:23;-2.50;99.90
25918;DHT22;13899;51.174;4.456;2024-01-10T04:29:49;-2.40;99.90
25918;DHT22;13899;51.174;4.456;2024-01-10T04:32:14;-2.60;99.90
25918;DHT22;13899;51.174;4.456;2024-01-10T04:34:40;-2.60;99.90
25918;DHT22;13899;51.174;4.456;2024-01-10T04:37:06;-2.40;99.90
25918;DHT22;13899;51.174;4.456;2024-01-10T04:39:35;-2.50;99.90
25918;DHT22;13899;51.174;4.456;2024-01-10T04:42:01;-2.30;99.90
25918;DHT22;13899;51.174;4.456;2024-01-10T04:44:26;-2.20;99.90
25918;DHT22;13899;51.174;4.456;2024-01-10T04:46:52;-2.60;99.90
25918;DHT22;13899;51.174;4.456;2024-01-10T04:49:17;-2.70;99.90
25918;DHT22;13899;51.174;4.456;2024-01-10T04:51:43;-2.40;99.90
25918;DHT22;13899;51.174;4.456;2024-01-10T04:54:09;-2.60;99.90
25918;DHT22;13899;51.174;4.456;2024-01-10T04:56:35;-2.60;99.90
25918;DHT22;13899;51.174;4.456;2024-01-10T04:59:04;-2.50;99.90
25918;DHT22;13899;51.174;4.456;2024-01-10T05:01:31;-2.60;99.90
25918;DHT22;13899;51.174;4.456;2024-01-10T05:03:57;-2.50;99.90
25918;DHT22;13899;51.174;4.456;2024-01-10T05:06:22;-2.90;99.90
25918;DHT22;13899;51.174;4.456;2024-01-10T05:08:48;-3.30;99.90
25918;DHT22;13899;51.174;4.456;2024-01-10T05:11:15;-3.30;99.90
25918;DHT22;13899;51.174;4.456;2024-01-10T05:13:41;-3.00;99.90
25918;DHT22;13899;51.174;4.456;2024-01-10T05:16:06;-3.10;99.90
25918;DHT22;13899;51.174;4.456;2024-01-10T05:18:32;-2.80;99.90
25918;DHT22;13899;51.174;4.456;2024-01-10T05:20:58;-2.80;99.90
25918;DHT22;13899;51.174;4.456;2024-01-10T05:23:24;-2.70;99.90
25918;DHT22;13899;51.174;4.456;2024-01-10T05:25:50;-2.60;99.90
25918;DHT22;13899;51.174;4.456;2024-01-10T05:28:16;-2.70;99.90
25918;DHT22;13899;51.174;4.456;2024-01-10T05:30:41;-2.70;99.90
25918;DHT22;13899;51.174;4.456;2024-01-10T05:33:10;-2.70;99.90
25918;DHT22;13899;51.174;4.456;2024-01-10T05:35:39;-2.80;99.90
25918;DHT22;13899;51.174;4.456;2024-01-10T05:38:05;-3.00;99.90
25918;DHT22;13899;51.174;4.456;2024-01-10T05:40:31;-3.10;99.90
25918;DHT22;13899;51.174;4.456;2024-01-10T05:42:57;-3.10;99.90
25918;DHT22;13899;51.174;4.456;2024-01-10T05:45:25;-3.10;99.90
25918;DHT22;13899;51.174;4.456;2024-01-10T05:47:51;-3.00;99.90
25918;DHT22;13899;51.174;4.456;2024-01-10T05:50:17;-2.70;99.90
25918;DHT22;13899;51.174;4.456;2024-01-10T05:52:43;-2.90;99.90
25918;DHT22;13899;51.174;4.456;2024-01-10T05:55:09;-2.80;99.90
25918;DHT22;13899;51.174;4.456;2024-01-10T05:57:38;-3.00;99.90
25918;DHT22;13899;51.174;4.456;2024-01-10T06:00:05;-2.90;99.90
25918;DHT22;13899;51.174;4.456;2024-01-10T06:02:39;-2.70;99.90
25918;DHT22;13899;51.174;4.456;2024-01-10T06:05:13;-2.80;99.90
25918;DHT22;13899;51.174;4.456;2024-01-10T06:07:39;-3.00;99.90
25918;DHT22;13899;51.174;4.456;2024-01-10T06:10:08;-2.80;99.90
25918;DHT22;13899;51.174;4.456;2024-01-10T06:12:35;-2.50;99.90
25918;DHT22;13899;51.174;4.456;2024-01-10T06:15:00;-2.30;99.90
25918;DHT22;13899;51.174;4.456;2024-01-10T06:17:26;-2.60;99.90
25918;DHT22;13899;51.174;4.456;2024-01-10T06:19:52;-2.90;99.90
25918;DHT22;13899;51.174;4.456;2024-01-10T06:22:17;-2.90;99.90
25918;DHT22;13899;51.174;4.456;2024-01-10T06:24:43;-3.10;99.90
25918;DHT22;13899;51.174;4.456;2024-01-10T06:27:09;-3.10;99.90
25918;DHT22;13899;51.174;4.456;2024-01-10T06:29:36;-3.10;99.90
25918;DHT22;13899;51.174;4.456;2024-01-10T06:32:05;-2.90;99.90
25918;DHT22;13899;51.174;4.456;2024-01-10T06:34:32;-3.20;99.90
25918;DHT22;13899;51.174;4.456;2024-01-10T06:36:58;-3.20;99.90
25918;DHT22;13899;51.174;4.456;2024-01-10T06:39:23;-3.00;99.90
25918;DHT22;13899;51.174;4.456;2024-01-10T06:41:49;-2.90;99.90
25918;DHT22;13899;51.174;4.456;2024-01-10T06:44:15;-2.80;99.90
25918;DHT22;13899;51.174;4.456;2024-01-10T06:46:44;-3.00;99.90
25918;DHT22;13899;51.174;4.456;2024-01-10T06:49:10;-2.90;99.90
25918;DHT22;13899;51.174;4.456;2024-01-10T06:51:36;-3.20;99.90
25918;DHT22;13899;51.174;4.456;2024-01-10T06:54:02;-2.90;99.90
25918;DHT22;13899;51.174;4.456;2024-01-10T06:56:31;-2.90;99.90
25918;DHT22;13899;51.174;4.456;2024-01-10T06:58:58;-2.80;99.90
25918;DHT22;13899;51.174;4.456;2024-01-10T07:01:23;-2.50;99.90
25918;DHT22;13899;51.174;4.456;2024-01-10T07:03:49;-2.60;99.90
25918;DHT22;13899;51.174;4.456;2024-01-10T07:06:15;-2.50;99.90
25918;DHT22;13899;51.174;4.456;2024-01-10T07:08:41;-2.40;99.90
25918;DHT22;13899;51.174;4.456;2024-01-10T07:11:10;-2.80;99.90
25918;DHT22;13899;51.174;4.456;2024-01-10T07:13:40;-2.90;99.90
25918;DHT22;13899;51.174;4.456;2024-01-10T07:16:06;-3.00;99.90
25918;DHT22;13899;51.174;4.456;2024-01-10T07:18:32;-2.80;99.90
25918;DHT22;13899;51.174;4.456;2024-01-10T07:20:58;-2.70;99.90
25918;DHT22;13899;51.174;4.456;2024-01-10T07:23:23;-2.90;99.90
25918;DHT22;13899;51.174;4.456;2024-01-10T07:25:49;-2.70;99.90
25918;DHT22;13899;51.174;4.456;2024-01-10T07:28:16;-2.50;99.90
25918;DHT22;13899;51.174;4.456;2024-01-10T07:30:41;-2.70;99.90
25918;DHT22;13899;51.174;4.456;2024-01-10T07:33:07;-2.70;99.90
25918;DHT22;13899;51.174;4.456;2024-01-10T07:35:33;-2.40;99.90
25918;DHT22;13899;51.174;4.456;2024-01-10T07:37:59;-2.40;99.90
25918;DHT22;13899;51.174;4.456;2024-01-10T07:40:24;-2.30;99.90
25918;DHT22;13899;51.174;4.456;2024-01-10T07:42:50;-2.50;99.90
25918;DHT22;13899;51.174;4.456;2024-01-10T07:45:16;-2.60;99.90
25918;DHT22;13899;51.174;4.456;2024-01-10T07:47:41;-2.70;99.90
25918;DHT22;13899;51.174;4.456;2024-01-10T07:50:08;-2.60;99.90
25918;DHT22;13899;51.174;4.456;2024-01-10T07:52:34;-2.70;99.90
25918;DHT22;13899;51.174;4.456;2024-01-10T07:55:00;-2.50;99.90
25918;DHT22;13899;51.174;4.456;2024-01-10T07:57:27;-2.80;99.90
25918;DHT22;13899;51.174;4.456;2024-01-10T07:59:53;-3.10;99.90
25918;DHT22;13899;51.174;4.456;2024-01-10T08:02:19;-2.90;99.90
25918;DHT22;13899;51.174;4.456;2024-01-10T08:04:44;-2.70;99.90
25918;DHT22;13899;51.174;4.456;2024-01-10T08:07:10;-2.70;99.90
25918;DHT22;13899;51.174;4.456;2024-01-10T08:09:36;-2.90;99.90
25918;DHT22;13899;51.174;4.456;2024-01-10T08:12:02;-3.00;99.90
25918;DHT22;13899;51.174;4.456;2024-01-10T08:14:28;-2.90;99.90
25918;DHT22;13899;51.174;4.456;2024-01-10T08:16:54;-2.80;99.90
25918;DHT22;13899;51.174;4.456;2024-01-10T08:19:26;-2.70;99.90
25918;DHT22;13899;51.174;4.456;2024-01-10T08:21:55;-2.80;99.90
25918;DHT22;13899;51.174;4.456;2024-01-10T08:24:22;-2.90;99.90
25918;DHT22;13899;51.174;4.456;2024-01-10T08:26:48;-2.70;99.90
25918;DHT22;13899;51.174;4.456;2024-01-10T08:29:20;-2.50;99.90
25918;DHT22;13899;51.174;4.456;2024-01-10T08:31:47;-2.40;99.90
25918;DHT22;13899;51.174;4.456;2024-01-10T08:34:12;-2.60;99.90
25918;DHT22;13899;51.174;4.456;2024-01-10T08:36:38;-2.80;99.90
25918;DHT22;13899;51.174;4.456;2024-01-10T08:39:04;-2.70;99.90
25918;DHT22;13899;51.174;4.456;2024-01-10T08:41:30;-2.70;99.90
25918;DHT22;13899;51.174;4.456;2024-01-10T08:43:56;-2.60;99.90
25918;DHT22;13899;51.174;4.456;2024-01-10T08:46:22;-2.80;99.90
25918;DHT22;13899;51.174;4.456;2024-01-10T08:48:48;-2.50;99.90
25918;DHT22;13899;51.174;4.456;2024-01-10T08:51:14;-2.90;99.90
25918;DHT22;13899;51.174;4.456;2024-01-10T08:53:42;-3.10;99.90
25918;DHT22;13899;51.174;4.456;2024-01-10T08:56:08;-3.00;99.90
25918;DHT22;13899;51.174;4.456;2024-01-10T08:58:33;-2.70;99.90
25918;DHT22;13899;51.174;4.456;2024-01-10T09:00:59;-2.80;99.90
25918;DHT22;13899;51.174;4.456;2024-01-10T09:03:25;-2.60;99.90
25918;DHT22;13899;51.174;4.456;2024-01-10T09:05:50;-2.50;99.90
25918;DHT22;13899;51.174;4.456;2024-01-10T09:08:16;-2.50;99.90
25918;DHT22;13899;51.174;4.456;2024-01-10T09:10:42;-2.20;99.90
25918;DHT22;13899;51.174;4.456;2024-01-10T09:13:08;-1.90;99.90
25918;DHT22;13899;51.174;4.456;2024-01-10T09:15:34;-2.00;99.90
25918;DHT22;13899;51.174;4.456;2024-01-10T09:18:00;-2.10;99.90
25918;DHT22;13899;51.174;4.456;2024-01-10T09:20:25;-2.00;99.90
25918;DHT22;13899;51.174;4.456;2024-01-10T09:22:51;-2.10;99.90
25918;DHT22;13899;51.174;4.456;2024-01-10T09:25:17;-2.30;99.90
25918;DHT22;13899;51.174;4.456;2024-01-10T09:27:42;-2.20;99.90
25918;DHT22;13899;51.174;4.456;2024-01-10T09:30:09;-2.10;99.90
25918;DHT22;13899;51.174;4.456;2024-01-10T09:32:35;-2.10;99.90
25918;DHT22;13899;51.174;4.456;2024-01-10T09:35:01;-2.00;99.90
25918;DHT22;13899;51.174;4.456;2024-01-10T09:37:27;-1.80;99.90
25918;DHT22;13899;51.174;4.456;2024-01-10T09:39:53;-1.40;99.90
25918;DHT22;13899;51.174;4.456;2024-01-10T09:42:19;-0.90;99.90
25918;DHT22;13899;51.174;4.456;2024-01-10T09:44:51;-0.60;99.90
25918;DHT22;13899;51.174;4.456;2024-01-10T09:47:20;0.00;99.90
25918;DHT22;13899;51.174;4.456;2024-01-10T09:49:46;0.60;99.90
25918;DHT22;13899;51.174;4.456;2024-01-10T09:52:20;0.70;99.90
25918;DHT22;13899;51.174;4.456;2024-01-10T09:54:53;1.50;99.90
25918;DHT22;13899;51.174;4.456;2024-01-10T09:57:19;2.30;99.90
25918;DHT22;13899;51.174;4.456;2024-01-10T09:59:47;3.10;99.90
25918;DHT22;13899;51.174;4.456;2024-01-10T10:02:13;2.80;99.90
25918;DHT22;13899;51.174;4.456;2024-01-10T10:04:56;3.00;99.90
25918;DHT22;13899;51.174;4.456;2024-01-10T10:07:26;4.20;99.90
25918;DHT22;13899;51.174;4.456;2024-01-10T10:09:52;2.70;99.90
25918;DHT22;13899;51.174;4.456;2024-01-10T10:12:19;3.50;99.90
25918;DHT22;13899;51.174;4.456;2024-01-10T10:14:44;4.20;99.90
25918;DHT22;13899;51.174;4.456;2024-01-10T10:17:17;4.50;99.90
25918;DHT22;13899;51.174;4.456;2024-01-10T10:19:43;5.00;99.90
25918;DHT22;13899;51.174;4.456;2024-01-10T10:22:10;4.70;99.90
25918;DHT22;13899;51.174;4.456;2024-01-10T10:24:37;3.90;99.90
25918;DHT22;13899;51.174;4.456;2024-01-10T10:27:08;4.30;99.90
25918;DHT22;13899;51.174;4.456;2024-01-10T10:29:36;5.10;99.90
25918;DHT22;13899;51.174;4.456;2024-01-10T10:32:03;6.00;99.10
25918;DHT22;13899;51.174;4.456;2024-01-10T10:34:31;6.90;94.70
25918;DHT22;13899;51.174;4.456;2024-01-10T10:36:58;6.90;95.30
25918;DHT22;13899;51.174;4.456;2024-01-10T10:39:25;6.50;93.70
25918;DHT22;13899;51.174;4.456;2024-01-10T10:41:51;5.70;93.30
25918;DHT22;13899;51.174;4.456;2024-01-10T10:44:19;4.40;97.10
25918;DHT22;13899;51.174;4.456;2024-01-10T10:46:50;5.00;96.40
25918;DHT22;13899;51.174;4.456;2024-01-10T10:49:18;5.30;95.60
25918;DHT22;13899;51.174;4.456;2024-01-10T10:51:47;5.50;95.70
25918;DHT22;13899;51.174;4.456;2024-01-10T10:54:15;6.40;93.50
25918;DHT22;13899;51.174;4.456;2024-01-10T10:56:43;5.80;93.60
25918;DHT22;13899;51.174;4.456;2024-01-10T10:59:10;4.70;94.60
25918;DHT22;13899;51.174;4.456;2024-01-10T11:01:39;5.30;95.00
25918;DHT22;13899;51.174;4.456;2024-01-10T11:04:05;5.00;94.50
25918;DHT22;13899;51.174;4.456;2024-01-10T11:06:32;4.00;96.20
25918;DHT22;13899;51.174;4.456;2024-01-10T11:09:04;2.90;98.40
25918;DHT22;13899;51.174;4.456;2024-01-10T11:20:13;3.60;98.70
25918;DHT22;13899;51.174;4.456;2024-01-10T11:25:20;4.50;97.60
25918;DHT22;13899;51.174;4.456;2024-01-10T11:27:46;5.90;94.00
25918;DHT22;13899;51.174;4.456;2024-01-10T11:30:34;7.00;92.20
25918;DHT22;13899;51.174;4.456;2024-01-10T11:38:47;7.70;83.30
25918;DHT22;13899;51.174;4.456;2024-01-10T11:41:34;6.10;84.90
25918;DHT22;13899;51.174;4.456;2024-01-10T11:46:43;6.40;90.10
25918;DHT22;13899;51.174;4.456;2024-01-10T11:49:15;6.40;86.80
25918;DHT22;13899;51.174;4.456;2024-01-10T11:51:48;6.60;88.30
25918;DHT22;13899;51.174;4.456;2024-01-10T11:57:01;7.30;80.00
25918;DHT22;13899;51.174;4.456;2024-01-10T11:59:27;6.80;83.90
25918;DHT22;13899;51.174;4.456;2024-01-10T12:01:55;7.20;83.20
25918;DHT22;13899;51.174;4.456;2024-01-10T12:04:21;7.40;86.70
25918;DHT22;13899;51.174;4.456;2024-01-10T12:06:47;7.70;80.90
25918;DHT22;13899;51.174;4.456;2024-01-10T12:09:13;8.30;79.10
25918;DHT22;13899;51.174;4.456;2024-01-10T12:11:42;8.90;75.20
25918;DHT22;13899;51.174;4.456;2024-01-10T12:14:11;8.40;75.20
25918;DHT22;13899;51.174;4.456;2024-01-10T12:16:37;7.80;77.70
25918;DHT22;13899;51.174;4.456;2024-01-10T12:19:04;7.30;81.10
25918;DHT22;13899;51.174;4.456;2024-01-10T12:21:30;7.30;76.40
25918;DHT22;13899;51.174;4.456;2024-01-10T12:23:56;6.80;78.60
25918;DHT22;13899;51.174;4.456;2024-01-10T12:26:21;7.00;76.20
25918;DHT22;13899;51.174;4.456;2024-01-10T12:28:57;7.70;76.40
25918;DHT22;13899;51.174;4.456;2024-01-10T12:31:26;8.20;74.60
25918;DHT22;13899;51.174;4.456;2024-01-10T12:33:52;8.50;73.10
25918;DHT22;13899;51.174;4.456;2024-01-10T12:36:18;8.80;70.30
25918;DHT22;13899;51.174;4.456;2024-01-10T12:38:45;9.20;69.80
25918;DHT22;13899;51.174;4.456;2024-01-10T12:41:11;9.80;71.60
25918;DHT22;13899;51.174;4.456;2024-01-10T12:43:37;8.90;68.10
25918;DHT22;13899;51.174;4.456;2024-01-10T12:46:07;8.70;69.90
25918;DHT22;13899;51.174;4.456;2024-01-10T12:48:34;9.00;66.10
25918;DHT22;13899;51.174;4.456;2024-01-10T12:51:03;9.60;66.30
25918;DHT22;13899;51.174;4.456;2024-01-10T12:53:35;9.80;67.00
25918;DHT22;13899;51.174;4.456;2024-01-10T12:56:02;10.50;62.00
25918;DHT22;13899;51.174;4.456;2024-01-10T12:58:28;10.10;63.70
25918;DHT22;13899;51.174;4.456;2024-01-10T13:00:55;9.40;62.70
25918;DHT22;13899;51.174;4.456;2024-01-10T13:03:21;9.10;63.80
25918;DHT22;13899;51.174;4.456;2024-01-10T13:05:47;9.30;64.30
25918;DHT22;13899;51.174;4.456;2024-01-10T13:08:12;9.10;63.00
25918;DHT22;13899;51.174;4.456;2024-01-10T13:10:39;8.80;61.60
25918;DHT22;13899;51.174;4.456;2024-01-10T13:13:05;7.80;65.50
25918;DHT22;13899;51.174;4.456;2024-01-10T13:15:31;7.60;67.10
25918;DHT22;13899;51.174;4.456;2024-01-10T13:17:56;8.50;64.20
25918;DHT22;13899;51.174;4.456;2024-01-10T13:20:23;8.70;64.60
25918;DHT22;13899;51.174;4.456;2024-01-10T13:22:50;7.80;64.70
25918;DHT22;13899;51.174;4.456;2024-01-10T13:25:16;7.60;68.40
25918;DHT22;13899;51.174;4.456;2024-01-10T13:27:42;6.90;67.40
25918;DHT22;13899;51.174;4.456;2024-01-10T13:30:08;6.60;69.90
25918;DHT22;13899;51.174;4.456;2024-01-10T13:32:37;6.30;71.10
25918;DHT22;13899;51.174;4.456;2024-01-10T13:35:03;7.60;69.40
25918;DHT22;13899;51.174;4.456;2024-01-10T13:37:29;8.20;66.00
25918;DHT22;13899;51.174;4.456;2024-01-10T13:39:57;7.70;67.30
25918;DHT22;13899;51.174;4.456;2024-01-10T13:42:23;6.40;69.40
25918;DHT22;13899;51.174;4.456;2024-01-10T13:44:49;6.70;69.90
25918;DHT22;13899;51.174;4.456;2024-01-10T13:47:17;6.90;70.40
25918;DHT22;13899;51.174;4.456;2024-01-10T13:49:43;7.20;70.00
25918;DHT22;13899;51.174;4.456;2024-01-10T13:52:08;7.60;71.30
25918;DHT22;13899;51.174;4.456;2024-01-10T13:54:34;7.20;68.00
25918;DHT22;13899;51.174;4.456;2024-01-10T13:57:01;7.20;70.50
25918;DHT22;13899;51.174;4.456;2024-01-10T13:59:27;7.20;71.70
25918;DHT22;13899;51.174;4.456;2024-01-10T14:01:52;7.10;72.80
25918;DHT22;13899;51.174;4.456;2024-01-10T14:04:18;7.00;77.00
25918;DHT22;13899;51.174;4.456;2024-01-10T14:06:43;6.90;74.40
25918;DHT22;13899;51.174;4.456;2024-01-10T14:09:09;7.00;73.00
25918;DHT22;13899;51.174;4.456;2024-01-10T14:11:35;7.00;73.90
25918;DHT22;13899;51.174;4.456;2024-01-10T14:14:01;6.50;72.30
25918;DHT22;13899;51.174;4.456;2024-01-10T14:16:27;5.90;75.00
25918;DHT22;13899;51.174;4.456;2024-01-10T14:18:53;5.70;75.60
25918;DHT22;13899;51.174;4.456;2024-01-10T14:21:22;5.20;77.70
25918;DHT22;13899;51.174;4.456;2024-01-10T14:23:47;4.90;78.80
25918;DHT22;13899;51.174;4.456;2024-01-10T14:26:14;5.50;78.30
25918;DHT22;13899;51.174;4.456;2024-01-10T14:28:40;5.10;79.50
25918;DHT22;13899;51.174;4.456;2024-01-10T14:31:06;5.20;82.50
25918;DHT22;13899;51.174;4.456;2024-01-10T14:33:32;4.90;80.10
25918;DHT22;13899;51.174;4.456;2024-01-10T14:35:58;4.40;81.70
25918;DHT22;13899;51.174;4.456;2024-01-10T14:38:24;4.10;86.80
25918;DHT22;13899;51.174;4.456;2024-01-10T14:40:50;3.80;89.90
25918;DHT22;13899;51.174;4.456;2024-01-10T14:43:17;3.50;90.80
25918;DHT22;13899;51.174;4.456;2024-01-10T14:45:43;3.40;90.90
25918;DHT22;13899;51.174;4.456;2024-01-10T14:48:09;3.40;90.80
25918;DHT22;13899;51.174;4.456;2024-01-10T14:50:35;3.40;92.10
25918;DHT22;13899;51.174;4.456;2024-01-10T14:53:01;3.10;92.10
25918;DHT22;13899;51.174;4.456;2024-01-10T14:55:27;2.80;93.50
25918;DHT22;13899;51.174;4.456;2024-01-10T14:57:54;2.80;92.50
25918;DHT22;13899;51.174;4.456;2024-01-10T15:00:20;2.90;94.00
25918;DHT22;13899;51.174;4.456;2024-01-10T15:02:46;3.10;92.70
25918;DHT22;13899;51.174;4.456;2024-01-10T15:05:12;3.10;95.00
25918;DHT22;13899;51.174;4.456;2024-01-10T15:07:38;3.00;93.70
25918;DHT22;13899;51.174;4.456;2024-01-10T15:10:04;2.80;92.90
25918;DHT22;13899;51.174;4.456;2024-01-10T15:12:30;2.90;94.50
25918;DHT22;13899;51.174;4.456;2024-01-10T15:14:56;2.90;94.50
25918;DHT22;13899;51.174;4.456;2024-01-10T15:17:25;3.10;95.90
25918;DHT22;13899;51.174;4.456;2024-01-10T15:19:51;2.90;95.70
25918;DHT22;13899;51.174;4.456;2024-01-10T15:22:17;3.20;94.00
25918;DHT22;13899;51.174;4.456;2024-01-10T15:24:43;3.50;94.00
25918;DHT22;13899;51.174;4.456;2024-01-10T15:27:08;3.50;95.60
25918;DHT22;13899;51.174;4.456;2024-01-10T15:29:39;3.50;95.10
25918;DHT22;13899;51.174;4.456;2024-01-10T15:32:05;3.10;94.70
25918;DHT22;13899;51.174;4.456;2024-01-10T15:34:31;3.00;95.80
25918;DHT22;13899;51.174;4.456;2024-01-10T15:36:57;3.30;95.10
25918;DHT22;13899;51.174;4.456;2024-01-10T15:39:22;3.20;94.90
25918;DHT22;13899;51.174;4.456;2024-01-10T15:41:53;3.30;95.70
25918;DHT22;13899;51.174;4.456;2024-01-10T15:44:19;3.20;96.10
25918;DHT22;13899;51.174;4.456;2024-01-10T15:46:45;3.30;95.40
25918;DHT22;13899;51.174;4.456;2024-01-10T15:49:11;3.20;95.00
25918;DHT22;13899;51.174;4.456;2024-01-10T15:51:37;2.90;96.20
25918;DHT22;13899;51.174;4.456;2024-01-10T15:54:03;3.00;96.00
25918;DHT22;13899;51.174;4.456;2024-01-10T15:56:28;2.90;96.00